sensor_id;sensor_type;location;lat;lon;timestamp;pressure;altitude;pressure_sealevel;temperature
49785;BMP280;35679;38.732;-121.358;2022-12-29T00:01:44;101139.81;;;13.70
49785;BMP280;35679;38.732;-121.358;2022-12-29T00:04:34;101156.09;;;13.67
49785;BMP280;35679;38.732;-121.358;2022-12-29T00:07:24;101154.63;;;13.64
49785;BMP280;35679;38.732;-121.358;2022-12-29T00:10:13;101156.63;;;13.62
49785;BMP280;35679;38.732;-121.358;2022-12-29T00:13:02;101165.56;;;13.61
49785;BMP280;35679;38.732;-121.358;2022-12-29T00:16:09;101156.97;;;13.59
49785;BMP280;35679;38.732;-121.358;2022-12-29T00:18:59;101156.31;;;13.57
49785;BMP280;35679;38.732;-121.358;2022-12-29T00:21:49;101159.97;;;13.56
49785;BMP280;35679;38.732;-121.358;2022-12-29T00:24:56;101163.66;;;13.55
49785;BMP280;35679;38.732;-121.358;2022-12-29T00:28:07;101157.69;;;13.53
49785;BMP280;35679;38.732;-121.358;2022-12-29T00:31:15;101159.53;;;13.53
49785;BMP280;35679;38.732;-121.358;2022-12-29T00:34:24;101169.47;;;13.51
49785;BMP280;35679;38.732;-121.358;2022-12-29T00:37:32;101169.63;;;13.49
49785;BMP280;35679;38.732;-121.358;2022-12-29T00:40:40;101173.28;;;13.48
49785;BMP280;35679;38.732;-121.358;2022-12-29T00:43:48;101154.91;;;13.47
49785;BMP280;35679;38.732;-121.358;2022-12-29T00:47:06;101150.59;;;13.46
49785;BMP280;35679;38.732;-121.358;2022-12-29T00:49:56;101163.03;;;13.45
49785;BMP280;35679;38.732;-121.358;2022-12-29T00:52:45;101157.91;;;13.44
49785;BMP280;35679;38.732;-121.358;2022-12-29T00:55:36;101147.47;;;13.42
49785;BMP280;35679;38.732;-121.358;2022-12-29T00:58:28;101150.97;;;13.43
49785;BMP280;35679;38.732;-121.358;2022-12-29T01:01:17;101151.97;;;13.42
49785;BMP280;35679;38.732;-121.358;2022-12-29T01:04:07;101146.84;;;13.40
49785;BMP280;35679;38.732;-121.358;2022-12-29T01:06:57;101145.19;;;13.39
49785;BMP280;35679;38.732;-121.358;2022-12-29T01:09:46;101146.19;;;13.38
49785;BMP280;35679;38.732;-121.358;2022-12-29T01:12:54;101149.00;;;13.37
49785;BMP280;35679;38.732;-121.358;2022-12-29T01:15:49;101138.56;;;13.35
49785;BMP280;35679;38.732;-121.358;2022-12-29T01:18:39;101142.22;;;13.34
49785;BMP280;35679;38.732;-121.358;2022-12-29T01:21:28;101146.69;;;13.34
49785;BMP280;35679;38.732;-121.358;2022-12-29T01:24:19;101144.03;;;13.34
49785;BMP280;35679;38.732;-121.358;2022-12-29T01:27:08;101138.91;;;13.32
49785;BMP280;35679;38.732;-121.358;2022-12-29T01:29:57;101133.81;;;13.31
49785;BMP280;35679;38.732;-121.358;2022-12-29T01:32:47;101132.97;;;13.30
49785;BMP280;35679;38.732;-121.358;2022-12-29T01:35:36;101140.91;;;13.30
49785;BMP280;35679;38.732;-121.358;2022-12-29T01:38:25;101134.97;;;13.28
49785;BMP280;35679;38.732;-121.358;2022-12-29T01:41:15;101145.56;;;13.28
49785;BMP280;35679;38.732;-121.358;2022-12-29T01:47:52;101144.91;;;13.26
49785;BMP280;35679;38.732;-121.358;2022-12-29T01:50:50;101131.66;;;13.26
49785;BMP280;35679;38.732;-121.358;2022-12-29T01:53:40;101134.31;;;13.26
49785;BMP280;35679;38.732;-121.358;2022-12-29T01:56:30;101130.00;;;13.25
49785;BMP280;35679;38.732;-121.358;2022-12-29T01:59:23;101114.28;;;13.24
49785;BMP280;35679;38.732;-121.358;2022-12-29T02:02:13;101116.94;;;13.24
49785;BMP280;35679;38.732;-121.358;2022-12-29T02:05:10;101107.34;;;13.23
49785;BMP280;35679;38.732;-121.358;2022-12-29T02:08:01;101112.00;;;13.21
49785;BMP280;35679;38.732;-121.358;2022-12-29T02:10:50;101107.50;;;13.21
49785;BMP280;35679;38.732;-121.358;2022-12-29T02:13:42;101102.22;;;13.21
49785;BMP280;35679;38.732;-121.358;2022-12-29T02:26:41;101094.63;;;13.18
49785;BMP280;35679;38.732;-121.358;2022-12-29T02:36:18;101108.06;;;13.17
49785;BMP280;35679;38.732;-121.358;2022-12-29T02:39:17;101103.75;;;13.16
49785;BMP280;35679;38.732;-121.358;2022-12-29T02:42:24;101107.41;;;13.15
49785;BMP280;35679;38.732;-121.358;2022-12-29T02:45:25;101099.63;;;13.13
49785;BMP280;35679;38.732;-121.358;2022-12-29T02:48:36;101105.06;;;13.12
49785;BMP280;35679;38.732;-121.358;2022-12-29T02:51:33;101119.16;;;13.12
49785;BMP280;35679;38.732;-121.358;2022-12-29T02:54:23;101106.91;;;13.11
49785;BMP280;35679;38.732;-121.358;2022-12-29T02:57:34;101108.75;;;13.11
49785;BMP280;35679;38.732;-121.358;2022-12-29T03:00:24;101118.50;;;13.10
49785;BMP280;35679;38.732;-121.358;2022-12-29T03:03:28;101123.16;;;13.09
49785;BMP280;35679;38.732;-121.358;2022-12-29T03:10:05;101125.16;;;13.07
49785;BMP280;35679;38.732;-121.358;2022-12-29T03:16:27;101128.78;;;13.06
49785;BMP280;35679;38.732;-121.358;2022-12-29T03:19:32;101136.91;;;13.04
49785;BMP280;35679;38.732;-121.358;2022-12-29T03:22:28;101138.09;;;13.02
49785;BMP280;35679;38.732;-121.358;2022-12-29T03:25:39;101128.31;;;13.02
49785;BMP280;35679;38.732;-121.358;2022-12-29T03:28:50;101132.13;;;13.00
49785;BMP280;35679;38.732;-121.358;2022-12-29T03:31:45;101134.97;;;12.98
49785;BMP280;35679;38.732;-121.358;2022-12-29T03:34:38;101131.31;;;12.99
49785;BMP280;35679;38.732;-121.358;2022-12-29T03:37:35;101112.09;;;12.97
49785;BMP280;35679;38.732;-121.358;2022-12-29T03:40:30;101118.25;;;12.98
49785;BMP280;35679;38.732;-121.358;2022-12-29T03:43:26;101113.94;;;12.97
49785;BMP280;35679;38.732;-121.358;2022-12-29T03:46:17;101106.00;;;12.97
49785;BMP280;35679;38.732;-121.358;2022-12-29T03:49:07;101100.88;;;12.95
49785;BMP280;35679;38.732;-121.358;2022-12-29T03:51:57;101102.19;;;12.91
49785;BMP280;35679;38.732;-121.358;2022-12-29T03:54:47;101096.56;;;12.94
49785;BMP280;35679;38.732;-121.358;2022-12-29T03:57:37;101089.97;;;12.90
49785;BMP280;35679;38.732;-121.358;2022-12-29T04:00:30;101090.78;;;12.91
49785;BMP280;35679;38.732;-121.358;2022-12-29T04:03:19;101087.66;;;12.87
49785;BMP280;35679;38.732;-121.358;2022-12-29T04:06:12;101088.50;;;12.88
49785;BMP280;35679;38.732;-121.358;2022-12-29T04:09:09;101100.91;;;12.87
49785;BMP280;35679;38.732;-121.358;2022-12-29T04:12:04;101109.69;;;12.88
49785;BMP280;35679;38.732;-121.358;2022-12-29T04:14:55;101123.06;;;12.86
49785;BMP280;35679;38.732;-121.358;2022-12-29T04:17:44;101129.38;;;12.85
49785;BMP280;35679;38.732;-121.358;2022-12-29T04:20:34;101143.41;;;12.86
49785;BMP280;35679;38.732;-121.358;2022-12-29T04:23:42;101125.88;;;12.85
49785;BMP280;35679;38.732;-121.358;2022-12-29T04:26:32;101110.97;;;12.84
49785;BMP280;35679;38.732;-121.358;2022-12-29T04:29:40;101095.25;;;12.82
49785;BMP280;35679;38.732;-121.358;2022-12-29T04:32:39;101097.09;;;12.82
49785;BMP280;35679;38.732;-121.358;2022-12-29T04:35:28;101088.31;;;12.81
49785;BMP280;35679;38.732;-121.358;2022-12-29T04:38:19;101080.56;;;12.80
49785;BMP280;35679;38.732;-121.358;2022-12-29T04:41:10;101073.59;;;12.79
49785;BMP280;35679;38.732;-121.358;2022-12-29T04:44:03;101064.84;;;12.78
49785;BMP280;35679;38.732;-121.358;2022-12-29T04:47:17;101042.19;;;12.76
49785;BMP280;35679;38.732;-121.358;2022-12-29T04:50:41;101036.06;;;12.75
49785;BMP280;35679;38.732;-121.358;2022-12-29T04:53:43;101038.88;;;12.74
49785;BMP280;35679;38.732;-121.358;2022-12-29T04:56:32;101037.69;;;12.76
49785;BMP280;35679;38.732;-121.358;2022-12-29T04:59:22;101045.00;;;12.74
49785;BMP280;35679;38.732;-121.358;2022-12-29T05:02:15;101040.53;;;12.75
49785;BMP280;35679;38.732;-121.358;2022-12-29T05:05:06;101033.94;;;12.71
49785;BMP280;35679;38.732;-121.358;2022-12-29T05:08:00;101049.63;;;12.72
49785;BMP280;35679;38.732;-121.358;2022-12-29T05:10:51;101036.75;;;12.69
49785;BMP280;35679;38.732;-121.358;2022-12-29T05:13:45;101037.56;;;12.70
49785;BMP280;35679;38.732;-121.358;2022-12-29T05:16:37;101026.16;;;12.69
49785;BMP280;35679;38.732;-121.358;2022-12-29T05:19:27;101032.28;;;12.70
49785;BMP280;35679;38.732;-121.358;2022-12-29T05:22:17;101034.13;;;12.69
49785;BMP280;35679;38.732;-121.358;2022-12-29T05:25:08;101048.34;;;12.68
49785;BMP280;35679;38.732;-121.358;2022-12-29T05:28:20;101056.47;;;12.67
49785;BMP280;35679;38.732;-121.358;2022-12-29T05:31:31;101047.84;;;12.65
49785;BMP280;35679;38.732;-121.358;2022-12-29T05:34:21;101026.50;;;12.66
49785;BMP280;35679;38.732;-121.358;2022-12-29T05:37:11;101033.63;;;12.66
49785;BMP280;35679;38.732;-121.358;2022-12-29T05:40:02;101026.50;;;12.66
49785;BMP280;35679;38.732;-121.358;2022-12-29T05:42:53;101039.91;;;12.65
49785;BMP280;35679;38.732;-121.358;2022-12-29T05:45:59;101024.84;;;12.65
49785;BMP280;35679;38.732;-121.358;2022-12-29T05:49:11;101021.75;;;12.62
49785;BMP280;35679;38.732;-121.358;2022-12-29T05:52:14;101013.63;;;12.63
49785;BMP280;35679;38.732;-121.358;2022-12-29T05:55:05;101030.50;;;12.62
49785;BMP280;35679;38.732;-121.358;2022-12-29T05:57:56;101039.91;;;12.65
49785;BMP280;35679;38.732;-121.358;2022-12-29T06:00:46;101017.25;;;12.62
49785;BMP280;35679;38.732;-121.358;2022-12-29T06:03:36;101036.78;;;12.61
49785;BMP280;35679;38.732;-121.358;2022-12-29T06:06:33;100962.84;;;12.60
49785;BMP280;35679;38.732;-121.358;2022-12-29T06:09:23;100959.53;;;12.58
49785;BMP280;35679;38.732;-121.358;2022-12-29T06:12:13;100962.19;;;12.58
49785;BMP280;35679;38.732;-121.358;2022-12-29T06:15:05;100997.44;;;12.58
49785;BMP280;35679;38.732;-121.358;2022-12-29T06:17:58;100932.06;;;12.59
49785;BMP280;35679;38.732;-121.358;2022-12-29T06:20:48;100979.91;;;12.57
49785;BMP280;35679;38.732;-121.358;2022-12-29T06:23:38;100948.81;;;12.59
49785;BMP280;35679;38.732;-121.358;2022-12-29T06:26:28;100934.91;;;12.57
49785;BMP280;35679;38.732;-121.358;2022-12-29T06:29:21;100946.31;;;12.58
49785;BMP280;35679;38.732;-121.358;2022-12-29T06:32:11;100957.91;;;12.57
49785;BMP280;35679;38.732;-121.358;2022-12-29T06:35:07;101001.56;;;12.61
49785;BMP280;35679;38.732;-121.358;2022-12-29T06:38:04;100952.25;;;12.60
49785;BMP280;35679;38.732;-121.358;2022-12-29T06:40:54;100991.66;;;12.55
49785;BMP280;35679;38.732;-121.358;2022-12-29T06:44:09;100970.31;;;12.56
49785;BMP280;35679;38.732;-121.358;2022-12-29T06:47:10;100991.47;;;12.56
49785;BMP280;35679;38.732;-121.358;2022-12-29T06:50:00;100997.63;;;12.57
49785;BMP280;35679;38.732;-121.358;2022-12-29T06:52:52;100987.34;;;12.54
49785;BMP280;35679;38.732;-121.358;2022-12-29T06:55:42;100950.13;;;12.55
49785;BMP280;35679;38.732;-121.358;2022-12-29T06:58:31;101004.88;;;12.55
49785;BMP280;35679;38.732;-121.358;2022-12-29T07:01:21;100985.56;;;12.54
49785;BMP280;35679;38.732;-121.358;2022-12-29T07:04:10;100986.72;;;12.52
49785;BMP280;35679;38.732;-121.358;2022-12-29T07:06:59;100963.72;;;12.52
49785;BMP280;35679;38.732;-121.358;2022-12-29T07:09:49;100954.59;;;12.55
49785;BMP280;35679;38.732;-121.358;2022-12-29T07:12:38;100941.38;;;12.55
49785;BMP280;35679;38.732;-121.358;2022-12-29T07:15:27;100944.00;;;12.55
49785;BMP280;35679;38.732;-121.358;2022-12-29T07:18:17;100944.00;;;12.55
49785;BMP280;35679;38.732;-121.358;2022-12-29T07:21:07;100959.22;;;12.53
49785;BMP280;35679;38.732;-121.358;2022-12-29T07:23:58;100960.25;;;12.52
49785;BMP280;35679;38.732;-121.358;2022-12-29T07:26:48;100975.13;;;12.53
49785;BMP280;35679;38.732;-121.358;2022-12-29T07:29:38;100983.22;;;12.51
49785;BMP280;35679;38.732;-121.358;2022-12-29T07:32:29;100998.94;;;12.53
49785;BMP280;35679;38.732;-121.358;2022-12-29T07:35:21;101006.25;;;12.51
49785;BMP280;35679;38.732;-121.358;2022-12-29T07:38:12;101042.44;;;12.50
49785;BMP280;35679;38.732;-121.358;2022-12-29T07:41:02;101048.59;;;12.51
49785;BMP280;35679;38.732;-121.358;2022-12-29T07:43:52;101054.69;;;12.51
49785;BMP280;35679;38.732;-121.358;2022-12-29T07:46:51;101062.81;;;12.50
49785;BMP280;35679;38.732;-121.358;2022-12-29T07:49:44;101076.03;;;12.50
49785;BMP280;35679;38.732;-121.358;2022-12-29T07:52:33;101079.34;;;12.52
49785;BMP280;35679;38.732;-121.358;2022-12-29T07:55:25;101086.44;;;12.51
49785;BMP280;35679;38.732;-121.358;2022-12-29T07:58:15;101095.56;;;12.49
49785;BMP280;35679;38.732;-121.358;2022-12-29T08:01:04;101105.16;;;12.50
49785;BMP280;35679;38.732;-121.358;2022-12-29T08:03:54;101109.63;;;12.49
49785;BMP280;35679;38.732;-121.358;2022-12-29T08:06:44;101119.38;;;12.49
49785;BMP280;35679;38.732;-121.358;2022-12-29T08:09:34;101122.19;;;12.47
49785;BMP280;35679;38.732;-121.358;2022-12-29T08:12:23;101127.31;;;12.49
49785;BMP280;35679;38.732;-121.358;2022-12-29T08:15:13;101128.47;;;12.46
49785;BMP280;35679;38.732;-121.358;2022-12-29T08:18:03;101127.66;;;12.46
49785;BMP280;35679;38.732;-121.358;2022-12-29T08:20:52;101134.59;;;12.47
49785;BMP280;35679;38.732;-121.358;2022-12-29T08:23:43;101125.66;;;12.48
49785;BMP280;35679;38.732;-121.358;2022-12-29T08:26:32;101130.13;;;12.47
49785;BMP280;35679;38.732;-121.358;2022-12-29T08:29:22;101125.66;;;12.48
49785;BMP280;35679;38.732;-121.358;2022-12-29T08:32:13;101120.38;;;12.48
49785;BMP280;35679;38.732;-121.358;2022-12-29T08:35:03;101098.56;;;12.46
49785;BMP280;35679;38.732;-121.358;2022-12-29T08:37:53;101095.25;;;12.44
49785;BMP280;35679;38.732;-121.358;2022-12-29T08:40:43;101093.41;;;12.44
49785;BMP280;35679;38.732;-121.358;2022-12-29T08:43:33;101086.31;;;12.45
49785;BMP280;35679;38.732;-121.358;2022-12-29T08:46:23;101072.09;;;12.46
49785;BMP280;35679;38.732;-121.358;2022-12-29T08:49:13;101071.44;;;12.44
49785;BMP280;35679;38.732;-121.358;2022-12-29T08:52:03;101064.28;;;12.44
49785;BMP280;35679;38.732;-121.358;2022-12-29T08:54:54;101059.19;;;12.43
49785;BMP280;35679;38.732;-121.358;2022-12-29T08:57:43;101060.84;;;12.44
49785;BMP280;35679;38.732;-121.358;2022-12-29T09:00:39;101062.69;;;12.43
49785;BMP280;35679;38.732;-121.358;2022-12-29T09:03:29;101064.47;;;12.43
49785;BMP280;35679;38.732;-121.358;2022-12-29T09:06:38;101042.66;;;12.41
49785;BMP280;35679;38.732;-121.358;2022-12-29T09:09:28;101025.13;;;12.40
49785;BMP280;35679;38.732;-121.358;2022-12-29T09:12:18;101025.13;;;12.40
49785;BMP280;35679;38.732;-121.358;2022-12-29T09:15:08;101034.06;;;12.39
49785;BMP280;35679;38.732;-121.358;2022-12-29T09:17:58;101048.94;;;12.40
49785;BMP280;35679;38.732;-121.358;2022-12-29T09:20:47;101057.06;;;12.39
49785;BMP280;35679;38.732;-121.358;2022-12-29T09:23:38;101084.16;;;12.41
49785;BMP280;35679;38.732;-121.358;2022-12-29T09:26:27;101110.63;;;12.41
49785;BMP280;35679;38.732;-121.358;2022-12-29T09:29:17;101130.13;;;12.40
49785;BMP280;35679;38.732;-121.358;2022-12-29T09:32:07;101131.78;;;12.41
49785;BMP280;35679;38.732;-121.358;2022-12-29T09:35:04;101150.31;;;12.41
49785;BMP280;35679;38.732;-121.358;2022-12-29T09:37:53;101139.75;;;12.41
49785;BMP280;35679;38.732;-121.358;2022-12-29T09:40:49;101116.75;;;12.41
49785;BMP280;35679;38.732;-121.358;2022-12-29T09:46:54;101122.88;;;12.42
49785;BMP280;35679;38.732;-121.358;2022-12-29T09:52:47;101090.44;;;12.40
49785;BMP280;35679;38.732;-121.358;2022-12-29T09:56:12;101072.78;;;12.40
49785;BMP280;35679;38.732;-121.358;2022-12-29T09:59:15;101082.50;;;12.40
49785;BMP280;35679;38.732;-121.358;2022-12-29T10:08:49;101038.88;;;12.36
49785;BMP280;35679;38.732;-121.358;2022-12-29T10:12:11;101045.63;;;12.38
49785;BMP280;35679;38.732;-121.358;2022-12-29T10:18:20;101041.34;;;12.37
49785;BMP280;35679;38.732;-121.358;2022-12-29T10:24:16;101044.66;;;12.39
49785;BMP280;35679;38.732;-121.358;2022-12-29T10:27:12;101027.97;;;12.39
49785;BMP280;35679;38.732;-121.358;2022-12-29T10:30:05;101026.47;;;12.36
49785;BMP280;35679;38.732;-121.358;2022-12-29T10:32:58;101021.19;;;12.36
49785;BMP280;35679;38.732;-121.358;2022-12-29T10:35:51;101014.88;;;12.37
49785;BMP280;35679;38.732;-121.358;2022-12-29T10:39:14;101003.47;;;12.37
49785;BMP280;35679;38.732;-121.358;2022-12-29T10:44:50;101025.47;;;12.37
49785;BMP280;35679;38.732;-121.358;2022-12-29T10:47:51;101039.72;;;12.36
49785;BMP280;35679;38.732;-121.358;2022-12-29T10:50:43;101038.88;;;12.36
49785;BMP280;35679;38.732;-121.358;2022-12-29T10:53:46;101028.94;;;12.38
49785;BMP280;35679;38.732;-121.358;2022-12-29T10:56:47;101041.69;;;12.34
49785;BMP280;35679;38.732;-121.358;2022-12-29T10:59:42;101025.31;;;12.39
49785;BMP280;35679;38.732;-121.358;2022-12-29T11:05:55;101037.22;;;12.35
49785;BMP280;35679;38.732;-121.358;2022-12-29T11:09:14;101047.97;;;12.33
49785;BMP280;35679;38.732;-121.358;2022-12-29T11:15:16;101012.59;;;12.34
49785;BMP280;35679;38.732;-121.358;2022-12-29T11:18:21;101015.22;;;12.34
49785;BMP280;35679;38.732;-121.358;2022-12-29T11:24:24;101059.84;;;12.37
49785;BMP280;35679;38.732;-121.358;2022-12-29T11:30:23;101040.88;;;12.34
49785;BMP280;35679;38.732;-121.358;2022-12-29T11:33:17;101033.75;;;12.34
49785;BMP280;35679;38.732;-121.358;2022-12-29T11:36:17;101013.41;;;12.35
49785;BMP280;35679;38.732;-121.358;2022-12-29T11:40:06;100979.00;;;12.35
49785;BMP280;35679;38.732;-121.358;2022-12-29T11:42:40;100980.03;;;12.34
49785;BMP280;35679;38.732;-121.358;2022-12-29T11:45:33;100974.72;;;12.34
49785;BMP280;35679;38.732;-121.358;2022-12-29T11:48:24;100990.75;;;12.32
49785;BMP280;35679;38.732;-121.358;2022-12-29T11:51:25;100977.38;;;12.34
49785;BMP280;35679;38.732;-121.358;2022-12-29T11:54:26;100984.66;;;12.32
49785;BMP280;35679;38.732;-121.358;2022-12-29T11:57:18;100985.47;;;12.32
49785;BMP280;35679;38.732;-121.358;2022-12-29T12:00:19;100998.53;;;12.34
49785;BMP280;35679;38.732;-121.358;2022-12-29T12:03:20;100996.88;;;12.33
49785;BMP280;35679;38.732;-121.358;2022-12-29T12:06:16;100993.41;;;12.32
49785;BMP280;35679;38.732;-121.358;2022-12-29T12:09:16;101023.34;;;12.33
49785;BMP280;35679;38.732;-121.358;2022-12-29T12:12:29;101028.63;;;12.33
49785;BMP280;35679;38.732;-121.358;2022-12-29T12:15:39;101029.28;;;12.35
49785;BMP280;35679;38.732;-121.358;2022-12-29T12:21:42;101024.16;;;12.33
49785;BMP280;35679;38.732;-121.358;2022-12-29T12:30:37;101072.28;;;12.37
49785;BMP280;35679;38.732;-121.358;2022-12-29T12:33:42;101061.88;;;12.35
49785;BMP280;35679;38.732;-121.358;2022-12-29T12:36:58;101031.09;;;12.34
49785;BMP280;35679;38.732;-121.358;2022-12-29T12:43:29;100995.06;;;12.33
49785;BMP280;35679;38.732;-121.358;2022-12-29T12:46:48;100988.78;;;12.34
49785;BMP280;35679;38.732;-121.358;2022-12-29T12:53:30;101003.84;;;12.34
49785;BMP280;35679;38.732;-121.358;2022-12-29T13:06:53;100949.25;;;12.33
49785;BMP280;35679;38.732;-121.358;2022-12-29T13:15:50;100947.63;;;12.32
49785;BMP280;35679;38.732;-121.358;2022-12-29T13:18:50;100935.19;;;12.32
49785;BMP280;35679;38.732;-121.358;2022-12-29T13:26:04;100938.69;;;12.33
49785;BMP280;35679;38.732;-121.358;2022-12-29T13:31:50;100909.75;;;12.31
49785;BMP280;35679;38.732;-121.358;2022-12-29T13:37:56;100926.44;;;12.32
49785;BMP280;35679;38.732;-121.358;2022-12-29T13:40:56;100958.84;;;12.34
49785;BMP280;35679;38.732;-121.358;2022-12-29T13:43:50;100954.56;;;12.33
49785;BMP280;35679;38.732;-121.358;2022-12-29T13:46:44;100945.63;;;12.34
49785;BMP280;35679;38.732;-121.358;2022-12-29T13:49:37;100949.09;;;12.34
49785;BMP280;35679;38.732;-121.358;2022-12-29T13:52:53;100957.84;;;12.35
49785;BMP280;35679;38.732;-121.358;2022-12-29T13:58:56;100975.72;;;12.33
49785;BMP280;35679;38.732;-121.358;2022-12-29T14:01:55;100964.28;;;12.32
49785;BMP280;35679;38.732;-121.358;2022-12-29T14:04:59;100947.97;;;12.29
49785;BMP280;35679;38.732;-121.358;2022-12-29T14:08:13;100945.78;;;12.32
49785;BMP280;35679;38.732;-121.358;2022-12-29T14:11:14;100946.81;;;12.31
49785;BMP280;35679;38.732;-121.358;2022-12-29T14:14:22;100962.00;;;12.29
49785;BMP280;35679;38.732;-121.358;2022-12-29T14:17:12;100981.53;;;12.28
49785;BMP280;35679;38.732;-121.358;2022-12-29T14:20:03;100961.03;;;12.30
49785;BMP280;35679;38.732;-121.358;2022-12-29T14:26:10;100949.59;;;12.30
49785;BMP280;35679;38.732;-121.358;2022-12-29T14:29:41;100958.56;;;12.29
49785;BMP280;35679;38.732;-121.358;2022-12-29T14:35:40;100942.69;;;12.29
49785;BMP280;35679;38.732;-121.358;2022-12-29T14:38:30;100932.72;;;12.31
49785;BMP280;35679;38.732;-121.358;2022-12-29T14:41:38;100942.81;;;12.27
49785;BMP280;35679;38.732;-121.358;2022-12-29T14:44:28;100938.38;;;12.28
49785;BMP280;35679;38.732;-121.358;2022-12-29T14:54:02;100901.16;;;12.29
49785;BMP280;35679;38.732;-121.358;2022-12-29T14:56:43;100904.81;;;12.28
49785;BMP280;35679;38.732;-121.358;2022-12-29T14:59:34;100910.75;;;12.30
49785;BMP280;35679;38.732;-121.358;2022-12-29T15:02:31;100915.19;;;12.30
49785;BMP280;35679;38.732;-121.358;2022-12-29T15:08:31;100938.38;;;12.28
49785;BMP280;35679;38.732;-121.358;2022-12-29T15:11:24;100946.13;;;12.29
49785;BMP280;35679;38.732;-121.358;2022-12-29T15:14:37;100942.69;;;12.29
49785;BMP280;35679;38.732;-121.358;2022-12-29T15:17:34;100922.31;;;12.29
49785;BMP280;35679;38.732;-121.358;2022-12-29T15:20:30;100930.44;;;12.28
49785;BMP280;35679;38.732;-121.358;2022-12-29T15:23:20;100948.78;;;12.29
49785;BMP280;35679;38.732;-121.358;2022-12-29T15:26:10;100955.91;;;12.29
49785;BMP280;35679;38.732;-121.358;2022-12-29T15:28:59;100954.06;;;12.29
49785;BMP280;35679;38.732;-121.358;2022-12-29T15:31:48;100953.25;;;12.29
49785;BMP280;35679;38.732;-121.358;2022-12-29T15:34:38;100963.00;;;12.28
49785;BMP280;35679;38.732;-121.358;2022-12-29T15:37:32;100959.38;;;12.29
49785;BMP280;35679;38.732;-121.358;2022-12-29T15:40:28;100944.47;;;12.28
49785;BMP280;35679;38.732;-121.358;2022-12-29T15:46:40;100944.47;;;12.28
49785;BMP280;35679;38.732;-121.358;2022-12-29T15:49:30;100944.16;;;12.31
49785;BMP280;35679;38.732;-121.358;2022-12-29T15:52:21;100937.38;;;12.29
49785;BMP280;35679;38.732;-121.358;2022-12-29T15:55:31;100945.31;;;12.29
49785;BMP280;35679;38.732;-121.358;2022-12-29T15:58:24;100938.38;;;12.28
49785;BMP280;35679;38.732;-121.358;2022-12-29T16:01:37;100953.72;;;12.32
49785;BMP280;35679;38.732;-121.358;2022-12-29T16:04:29;100951.25;;;12.31
49785;BMP280;35679;38.732;-121.358;2022-12-29T16:07:52;100944.66;;;12.27
49785;BMP280;35679;38.732;-121.358;2022-12-29T16:10:42;100948.28;;;12.26
49785;BMP280;35679;38.732;-121.358;2022-12-29T16:13:35;100954.72;;;12.31
49785;BMP280;35679;38.732;-121.358;2022-12-29T16:16:32;100965.47;;;12.30
49785;BMP280;35679;38.732;-121.358;2022-12-29T16:19:27;100986.50;;;12.31
49785;BMP280;35679;38.732;-121.358;2022-12-29T16:22:34;101006.97;;;12.29
49785;BMP280;35679;38.732;-121.358;2022-12-29T16:25:28;101004.53;;;12.28
49785;BMP280;35679;38.732;-121.358;2022-12-29T16:28:40;101017.56;;;12.29
49785;BMP280;35679;38.732;-121.358;2022-12-29T16:31:36;101032.63;;;12.29
49785;BMP280;35679;38.732;-121.358;2022-12-29T16:34:30;101034.25;;;12.30
49785;BMP280;35679;38.732;-121.358;2022-12-29T16:37:34;101041.38;;;12.29
49785;BMP280;35679;38.732;-121.358;2022-12-29T16:40:32;101061.72;;;12.29
49785;BMP280;35679;38.732;-121.358;2022-12-29T16:43:29;101058.25;;;12.28
49785;BMP280;35679;38.732;-121.358;2022-12-29T16:46:28;101049.97;;;12.31
49785;BMP280;35679;38.732;-121.358;2022-12-29T16:49:18;101049.31;;;12.29
49785;BMP280;35679;38.732;-121.358;2022-12-29T16:52:13;101046.50;;;12.31
49785;BMP280;35679;38.732;-121.358;2022-12-29T16:55:03;101062.53;;;12.29
49785;BMP280;35679;38.732;-121.358;2022-12-29T16:57:53;101068.50;;;12.31
49785;BMP280;35679;38.732;-121.358;2022-12-29T17:00:45;101081.06;;;12.29
49785;BMP280;35679;38.732;-121.358;2022-12-29T17:03:39;101080.72;;;12.32
49785;BMP280;35679;38.732;-121.358;2022-12-29T17:06:30;101104.69;;;12.31
49785;BMP280;35679;38.732;-121.358;2022-12-29T17:09:21;101105.69;;;12.30
49785;BMP280;35679;38.732;-121.358;2022-12-29T17:12:15;101118.78;;;12.31
49785;BMP280;35679;38.732;-121.358;2022-12-29T17:15:09;101134.66;;;12.31
49785;BMP280;35679;38.732;-121.358;2022-12-29T17:18:01;101142.41;;;12.33
49785;BMP280;35679;38.732;-121.358;2022-12-29T17:20:58;101152.16;;;12.32
49785;BMP280;35679;38.732;-121.358;2022-12-29T17:23:47;101154.78;;;12.32
49785;BMP280;35679;38.732;-121.358;2022-12-29T17:26:36;101149.50;;;12.32
49785;BMP280;35679;38.732;-121.358;2022-12-29T17:32:15;101150.34;;;12.33
49785;BMP280;35679;38.732;-121.358;2022-12-29T17:35:04;101145.38;;;12.30
49785;BMP280;35679;38.732;-121.358;2022-12-29T17:37:54;101154.47;;;12.35
49785;BMP280;35679;38.732;-121.358;2022-12-29T17:40:43;101155.28;;;12.36
49785;BMP280;35679;38.732;-121.358;2022-12-29T17:43:33;101161.75;;;12.33
49785;BMP280;35679;38.732;-121.358;2022-12-29T17:46:24;101154.78;;;12.32
49785;BMP280;35679;38.732;-121.358;2022-12-29T17:49:16;101152.81;;;12.34
49785;BMP280;35679;38.732;-121.358;2022-12-29T17:52:06;101136.13;;;12.34
49785;BMP280;35679;38.732;-121.358;2022-12-29T17:54:55;101130.84;;;12.34
49785;BMP280;35679;38.732;-121.358;2022-12-29T17:57:45;101142.22;;;12.34
49785;BMP280;35679;38.732;-121.358;2022-12-29T18:00:34;101168.34;;;12.37
49785;BMP280;35679;38.732;-121.358;2022-12-29T18:03:30;101174.47;;;12.38
49785;BMP280;35679;38.732;-121.358;2022-12-29T18:06:20;101173.50;;;12.39